Stet, MO

5:02 AM CDT on August 05, 2015 (GMT -0500)
Ray County Hospital | | Change Station
CLOSE
Current Station
Personal Weather Station
Location: Richmond, MO
Elevation: 827 ft
Nearby Weather Stations
Active Advisory: Flood Warning

Elev 827 ft 39.26 °N, 93.96 °W | Updated 4 seconds ago

Rain
Rain
66.7 °F
Feels Like 66.7 °F
N
0.0
Wind Variable Wind from SE
Gusts 0.0 mph

Today
High -- | Low -- °F
--% Chance of Precip.
Yesterday
High -- | Low -- °F
Precip. -- in
6:18 AM 8:23 PM
Waning Gibbous, 69% visible
Pressure 29.98 in
Visibility 10.0 miles
Clouds Overcast 12000 ft
Dew Point 62 °F
Humidity 84%
Rainfall 0.00 in
Snow Depth Not available.
UV 0 out of 12
Pollen 6.50 out of 12
Air Quality Not available.
Flu Activity Not available.
METAR KGPH 050955Z AUTO 12006KT 10SM OVC120 21/20 A2998 RMK AO2

More Conditions Fewer Conditions

Pressure 29.98 in
Visibility 10.0 miles
Clouds Overcast 12000 ft
Dew Point 62 °F
Humidity 84%
Rainfall 0.00 in
Snow Depth Not available.
UV 0 out of 12
Pollen 6.50 out of 12
Air Quality Not available.
Flu Activity Not available.
METAR KGPH 050955Z AUTO 12006KT 10SM OVC120 21/20 A2998 RMK AO2

More Conditions Fewer Conditions

10-Day Weather Forecast

×

Almanac

Astronomy

Aug. 05, 2015 Rise Set
Actual Time
Civil Twilight
Nautical Twilight
Astronomical Twilight
Moon
Length of Visible Light
Length of Day
Tomorrow will be .
, % of the Moon is Illuminated

Today's Extremes

State Highs State Lows

Community

WunderPhotos

Upload Photos

1,844,113 photos uploaded!

WunderBlogs® & News

Nearby

Air Quality

  Air Quality AQ Index Pollutant
Not available.

Snow Depth

Station Depth Elevation

Earthquake Activity

City Distance Mag. Time & Date
Minimum magnitude displayed is 2.5.

Coastal Water Temperatures

Place Temperature

Stations

Nearby Weather Stations

Station Location Temp. Windchill Dew Point Humidity Wind Precip. Elev Updated Type
                   
Flood Warning
Statement as of 10:05 PM CDT on August 04, 2015

The Flood Warning continues for
the Grand River near Sumner.
* Until Thursday afternoon.
* At 9:45 PM Tuesday the stage was 27.1 feet.
* Flood stage is 26.0 feet.
* Minor flooding is occurring and minor flooding is forecast.
* Forecast... the river will continue rising to near 27.3 feet by
early Wednesday morning. The river will fall below flood stage
early Wednesday afternoon.
* At 26.0 feet... rural land adjacent to the river is flooded.
* At 23.0 feet... bottomland 1 to 2 miles south of the gage begins to
flood.

                       Latest
location fs stage day/time forecast

Grand River
Sumner 26 27.1 Tue 10 PM 27.3 early Wednesday
morning


lat... Lon 3967 9343 3978 9343 3970 9327 3953 9321 3951 9330